createdAt,value
2023-03-06T00:00:50.394Z,0.50
2023-03-06T00:03:16.935Z,0.20
2023-03-06T00:05:43.725Z,0.57
2023-03-06T00:08:10.870Z,0.43
2023-03-06T00:10:38.042Z,0.30
2023-03-06T00:13:08.380Z,0.47
2023-03-06T00:15:35.032Z,0.40
2023-03-06T00:18:04.543Z,0.50
2023-03-06T00:20:31.538Z,0.45
2023-03-06T00:22:58.284Z,0.35
2023-03-06T00:25:25.364Z,0.60
2023-03-06T00:27:52.281Z,0.23
2023-03-06T00:30:22.397Z,0.40
2023-03-06T00:32:49.454Z,0.40
2023-03-06T00:35:16.443Z,0.70
2023-03-06T00:37:43.700Z,0.43
2023-03-06T00:40:13.865Z,0.53
2023-03-06T00:42:40.914Z,0.43
2023-03-06T00:45:07.937Z,0.68
2023-03-06T00:47:34.840Z,0.60
2023-03-06T00:50:01.517Z,0.63
2023-03-06T00:52:27.943Z,0.60
2023-03-06T00:54:54.414Z,0.70
2023-03-06T00:57:20.950Z,0.50
2023-03-06T00:59:47.509Z,0.80
2023-03-06T01:02:14.256Z,0.70
2023-03-06T01:04:40.767Z,0.97
2023-03-06T01:07:07.380Z,0.98
2023-03-06T01:09:33.837Z,1.00
2023-03-06T01:12:00.521Z,0.98
2023-03-06T01:14:27.172Z,1.60
2023-03-06T01:16:53.767Z,1.00
2023-03-06T01:19:20.230Z,0.90
2023-03-06T01:21:46.668Z,1.48
2023-03-06T01:24:13.148Z,1.80
2023-03-06T01:26:39.697Z,1.77
2023-03-06T01:29:06.411Z,1.47
2023-03-06T01:31:33.131Z,1.73
2023-03-06T01:33:59.770Z,1.45
2023-03-06T01:36:26.214Z,1.70
2023-03-06T01:38:52.654Z,1.88
2023-03-06T01:41:21.132Z,1.80
2023-03-06T01:43:47.625Z,1.90
2023-03-06T01:46:22.857Z,1.67
2023-03-06T01:48:54.006Z,2.08
2023-03-06T01:51:22.044Z,1.75
2023-03-06T01:53:51.034Z,2.20
2023-03-06T01:56:17.874Z,2.30
2023-03-06T01:58:45.058Z,1.90
2023-03-06T02:01:14.847Z,2.38
2023-03-06T02:03:42.775Z,2.67
2023-03-06T02:06:09.642Z,2.40
2023-03-06T02:08:36.267Z,2.83
2023-03-06T02:11:08.622Z,3.10
2023-03-06T02:13:36.299Z,2.75
2023-03-06T02:16:02.904Z,2.65
2023-03-06T02:18:30.162Z,3.60
2023-03-06T02:21:04.326Z,2.80
2023-03-06T02:23:51.039Z,3.45
2023-03-06T02:26:18.926Z,3.17
2023-03-06T02:28:46.682Z,4.15
2023-03-06T02:31:23.751Z,3.20
2023-03-06T02:34:06.225Z,3.50
2023-03-06T02:36:37.879Z,3.92
2023-03-06T02:39:05.559Z,4.53
2023-03-06T02:41:32.128Z,4.85
2023-03-06T02:43:58.611Z,5.03
2023-03-06T02:46:25.174Z,4.82
2023-03-06T02:48:51.687Z,4.63
2023-03-06T02:51:18.130Z,4.80
2023-03-06T02:53:44.588Z,4.60
2023-03-06T02:56:11.002Z,4.30
2023-03-06T02:58:37.626Z,4.15
2023-03-06T03:01:04.782Z,4.95
2023-03-06T03:03:33.044Z,4.25
2023-03-06T03:06:00.776Z,4.28
2023-03-06T03:08:28.380Z,4.47
2023-03-06T03:10:56.513Z,4.85
2023-03-06T03:13:23.447Z,4.45
2023-03-06T03:16:07.736Z,4.60
2023-03-06T03:18:35.405Z,4.13
2023-03-06T03:21:02.316Z,4.13
2023-03-06T03:23:28.799Z,4.90
2023-03-06T03:25:55.279Z,4.32
2023-03-06T03:28:21.727Z,4.47
2023-03-06T03:30:48.330Z,3.92
2023-03-06T03:33:14.815Z,3.97
2023-03-06T03:35:41.457Z,4.43
2023-03-06T03:38:07.870Z,4.50
2023-03-06T03:40:34.552Z,4.72
2023-03-06T03:43:01.080Z,4.53
2023-03-06T03:45:27.621Z,4.60
2023-03-06T03:47:54.008Z,4.03
2023-03-06T03:50:20.597Z,3.97
2023-03-06T03:52:47.104Z,4.10
2023-03-06T03:55:13.655Z,3.58
2023-03-06T03:57:40.216Z,3.80
2023-03-06T04:00:08.155Z,3.30
2023-03-06T04:02:34.698Z,3.22
2023-03-06T04:05:01.181Z,3.25
2023-03-06T04:07:27.656Z,3.00
2023-03-06T04:09:54.177Z,2.43
2023-03-06T04:12:20.678Z,3.42
2023-03-06T04:14:47.198Z,3.25
2023-03-06T04:17:13.706Z,3.78
2023-03-06T04:19:40.127Z,3.35
2023-03-06T04:22:06.570Z,3.50
2023-03-06T04:24:33.009Z,2.97
2023-03-06T04:26:59.520Z,3.25
2023-03-06T04:29:26.036Z,2.97
2023-03-06T04:31:52.507Z,3.15
2023-03-06T04:34:18.912Z,3.60
2023-03-06T04:36:45.350Z,3.58
2023-03-06T04:39:13.039Z,3.75
2023-03-06T04:41:40.694Z,3.72
2023-03-06T04:44:08.127Z,3.00
2023-03-06T04:46:34.826Z,3.47
2023-03-06T04:49:01.347Z,3.80
2023-03-06T04:51:27.993Z,2.97
2023-03-06T04:53:54.493Z,3.00
2023-03-06T04:56:20.918Z,2.35
2023-03-06T04:58:47.392Z,2.67
2023-03-06T05:01:13.948Z,2.45
2023-03-06T05:03:40.740Z,2.67
2023-03-06T05:06:07.429Z,2.47
2023-03-06T05:08:33.958Z,2.13
2023-03-06T05:11:01.914Z,1.93
2023-03-06T05:13:29.072Z,1.65
2023-03-06T05:15:55.676Z,1.17
2023-03-06T05:18:22.167Z,1.52
2023-03-06T05:20:48.733Z,1.27
2023-03-06T05:23:15.224Z,0.87
2023-03-06T05:25:42.299Z,1.15
2023-03-06T05:28:09.110Z,1.20
2023-03-06T05:30:35.897Z,1.05
2023-03-06T05:33:02.413Z,0.98
2023-03-06T05:35:28.952Z,0.90
2023-03-06T05:37:55.388Z,0.90
2023-03-06T05:40:22.378Z,0.80
2023-03-06T05:42:48.998Z,0.85
2023-03-06T05:45:15.614Z,0.40
2023-03-06T05:47:42.094Z,0.67
2023-03-06T05:50:10.465Z,0.80
2023-03-06T05:52:39.592Z,0.68
2023-03-06T05:55:07.404Z,0.63
2023-03-06T05:57:34.047Z,0.85
2023-03-06T06:00:00.618Z,0.90
2023-03-06T06:02:27.158Z,1.23
2023-03-06T06:04:53.640Z,1.20
2023-03-06T06:07:20.071Z,1.30
2023-03-06T06:09:46.640Z,1.25
2023-03-06T06:12:14.035Z,1.23
2023-03-06T06:14:40.531Z,1.10
2023-03-06T06:17:07.520Z,0.73
2023-03-06T06:19:34.020Z,0.63
2023-03-06T06:22:02.563Z,0.50
2023-03-06T06:24:29.554Z,0.70
2023-03-06T06:26:57.160Z,0.68
2023-03-06T06:29:25.410Z,0.40
2023-03-06T06:31:52.818Z,0.35
2023-03-06T06:34:20.387Z,0.28
2023-03-06T06:36:47.115Z,0.40
2023-03-06T06:39:18.003Z,0.30
2023-03-06T06:42:02.341Z,0.35
2023-03-06T06:44:31.791Z,0.20
2023-03-06T06:49:46.429Z,0.20
2023-03-06T06:52:12.874Z,0.20
2023-03-06T06:54:39.318Z,0.20
2023-03-06T06:57:05.781Z,0.20
2023-03-06T06:59:32.252Z,0.30
2023-03-06T07:01:58.736Z,0.10
2023-03-06T07:04:25.224Z,0.10
2023-03-06T07:06:55.626Z,0.13
2023-03-06T07:09:22.330Z,0.20
2023-03-06T07:11:48.853Z,0.20
2023-03-06T07:14:15.375Z,0.10
2023-03-06T07:16:41.984Z,0.20
2023-03-06T07:19:08.428Z,0.15
2023-03-06T07:21:34.986Z,0.30
2023-03-06T07:24:01.595Z,0.10
2023-03-06T07:26:28.645Z,0.10
2023-03-06T07:28:55.353Z,0.10
2023-03-06T07:31:24.760Z,0.10
2023-03-06T07:33:53.051Z,0.10
2023-03-06T07:36:20.896Z,0.10
2023-03-06T07:38:47.646Z,0.10
2023-03-06T07:41:16.307Z,0.10
2023-03-06T07:43:44.499Z,0.10
2023-03-06T07:46:12.782Z,0.10
2023-03-06T07:48:40.349Z,0.10
2023-03-06T07:51:18.679Z,0.10
2023-03-06T07:53:45.319Z,0.03
2023-03-06T07:56:12.887Z,0.10
2023-03-06T07:58:41.586Z,0.10
2023-03-06T08:01:10.956Z,0.10
2023-03-06T08:03:37.697Z,0.20
2023-03-06T08:06:12.179Z,0.10
2023-03-06T08:08:40.397Z,0.00
2023-03-06T08:11:08.580Z,0.00
2023-03-06T08:13:35.793Z,0.05
2023-03-06T08:16:02.824Z,0.03
2023-03-06T08:18:29.635Z,0.00
2023-03-06T08:21:07.694Z,0.00
2023-03-06T08:23:34.779Z,0.00
2023-03-06T08:26:10.559Z,0.00
2023-03-06T08:28:39.238Z,0.10
2023-03-06T08:31:23.813Z,1.40
2023-03-06T08:33:53.991Z,0.08
2023-03-06T08:36:20.547Z,0.00
2023-03-06T08:38:47.040Z,0.00
2023-03-06T08:41:13.510Z,0.00
2023-03-06T08:43:40.266Z,0.03
2023-03-06T08:46:06.873Z,0.03
2023-03-06T08:48:33.493Z,0.00
2023-03-06T08:50:59.957Z,0.00
2023-03-06T08:53:41.612Z,0.00
2023-03-06T08:56:18.474Z,0.10
2023-03-06T08:58:45.699Z,0.00
2023-03-06T09:01:21.186Z,0.00
2023-03-06T09:03:48.154Z,0.10
2023-03-06T09:06:15.204Z,0.00
2023-03-06T09:08:43.863Z,0.10
2023-03-06T09:11:12.697Z,0.00
2023-03-06T09:13:39.682Z,0.10
2023-03-06T09:16:06.830Z,0.00
2023-03-06T09:18:33.524Z,0.00
2023-03-06T09:21:00.134Z,0.00
2023-03-06T09:23:26.603Z,0.08
2023-03-06T09:25:54.317Z,0.38
2023-03-06T09:28:20.988Z,0.00
2023-03-06T09:30:47.892Z,0.00
2023-03-06T09:33:14.777Z,0.00
2023-03-06T09:35:49.215Z,0.00
2023-03-06T09:38:15.754Z,0.10
2023-03-06T09:40:55.444Z,0.00
2023-03-06T09:43:29.511Z,0.00
2023-03-06T09:45:57.333Z,0.00
2023-03-06T09:48:38.130Z,0.00
2023-03-06T09:51:15.065Z,0.00
2023-03-06T09:53:49.837Z,0.00
2023-03-06T09:56:19.644Z,0.10
2023-03-06T09:58:55.794Z,0.00
2023-03-06T10:01:27.949Z,0.20
2023-03-06T10:04:04.611Z,0.25
2023-03-06T10:06:41.311Z,0.00
2023-03-06T10:09:17.296Z,0.10
2023-03-06T10:11:51.430Z,0.00
2023-03-06T10:14:21.501Z,0.20
2023-03-06T10:16:48.133Z,0.00
2023-03-06T10:19:20.115Z,0.00
2023-03-06T10:22:06.017Z,0.00
2023-03-06T10:24:42.333Z,0.00
2023-03-06T10:27:27.633Z,0.00
2023-03-06T10:30:32.673Z,0.08
2023-03-06T10:33:33.512Z,0.10
2023-03-06T10:36:00.185Z,0.00
2023-03-06T10:38:37.649Z,0.08
2023-03-06T10:41:07.322Z,0.00
2023-03-06T10:43:36.552Z,0.28
2023-03-06T10:46:05.250Z,0.00
2023-03-06T10:48:35.968Z,0.00
2023-03-06T10:51:19.528Z,0.00
2023-03-06T10:53:52.075Z,0.00
2023-03-06T10:56:36.852Z,0.00
2023-03-06T10:59:35.687Z,0.00
2023-03-06T11:02:25.643Z,0.00
2023-03-06T11:04:54.232Z,0.00
2023-03-06T11:07:32.639Z,0.00
2023-03-06T11:10:01.758Z,0.00
2023-03-06T11:12:34.294Z,0.00
2023-03-06T11:15:07.245Z,0.00
2023-03-06T11:17:58.996Z,0.20
2023-03-06T11:20:44.621Z,0.00
2023-03-06T11:23:30.183Z,0.00
2023-03-06T11:26:03.083Z,0.00
2023-03-06T11:28:58.984Z,0.00
2023-03-06T11:31:37.097Z,0.00
2023-03-06T11:34:23.212Z,0.00
2023-03-06T11:37:08.406Z,0.08
2023-03-06T11:39:47.894Z,0.00
2023-03-06T11:42:17.291Z,0.10
2023-03-06T11:45:09.978Z,0.10
2023-03-06T11:47:48.424Z,0.10
2023-03-06T11:50:35.791Z,0.00
2023-03-06T11:53:05.183Z,0.20
2023-03-06T11:55:40.669Z,0.10
2023-03-06T11:58:44.590Z,0.20
2023-03-06T12:01:26.910Z,0.10
2023-03-06T12:04:23.239Z,0.10
2023-03-06T12:07:10.926Z,0.17
2023-03-06T12:09:55.029Z,0.10
2023-03-06T12:12:42.836Z,0.20
2023-03-06T12:15:45.832Z,0.10
2023-03-06T12:19:03.113Z,0.10
2023-03-06T12:22:00.036Z,0.13
2023-03-06T12:24:34.971Z,0.10
2023-03-06T12:27:04.569Z,0.15
2023-03-06T12:29:45.944Z,0.20
2023-03-06T12:32:31.163Z,0.10
2023-03-06T12:35:12.435Z,2.47
2023-03-06T12:37:55.065Z,0.50
2023-03-06T12:40:39.862Z,0.30
2023-03-06T12:43:10.253Z,0.20
2023-03-06T12:45:38.166Z,0.20
2023-03-06T12:48:14.769Z,0.20
2023-03-06T12:50:44.464Z,0.23
2023-03-06T12:53:29.898Z,0.30
2023-03-06T12:55:58.706Z,0.20
2023-03-06T12:58:28.223Z,0.10
2023-03-06T13:01:05.806Z,0.20
2023-03-06T13:04:00.225Z,0.23
2023-03-06T13:06:57.514Z,0.20
2023-03-06T13:09:53.816Z,0.20
2023-03-06T13:12:40.221Z,0.20
2023-03-06T13:15:31.524Z,0.30
2023-03-06T13:17:58.169Z,0.33
2023-03-06T13:20:38.347Z,0.70
2023-03-06T13:23:33.015Z,0.70
2023-03-06T13:26:00.457Z,0.70
2023-03-06T13:28:40.108Z,0.50
2023-03-06T13:31:10.627Z,0.80
2023-03-06T13:33:39.052Z,1.08
2023-03-06T13:36:30.362Z,1.23
2023-03-06T13:39:03.836Z,1.70
2023-03-06T13:41:30.349Z,1.20
2023-03-06T13:43:58.953Z,1.42
2023-03-06T13:46:30.871Z,1.50
2023-03-06T13:49:09.545Z,2.42
2023-03-06T13:51:38.924Z,2.90
2023-03-06T13:54:36.415Z,2.90
2023-03-06T13:57:21.687Z,2.63
2023-03-06T14:00:33.531Z,2.03
2023-03-06T14:03:08.987Z,3.95
2023-03-06T14:05:49.600Z,3.30
2023-03-06T14:08:30.271Z,3.38
2023-03-06T14:11:22.986Z,3.10
2023-03-06T14:13:55.552Z,3.53
2023-03-06T14:16:24.517Z,3.22
2023-03-06T14:18:53.772Z,3.75
2023-03-06T14:21:30.902Z,3.17
2023-03-06T14:24:03.183Z,2.97
2023-03-06T14:26:40.023Z,2.45
2023-03-06T14:29:28.224Z,2.55
2023-03-06T14:31:59.888Z,2.08
2023-03-06T14:34:29.948Z,2.22
2023-03-06T14:37:18.308Z,1.90
2023-03-06T14:39:45.479Z,2.00
2023-03-06T14:42:26.480Z,2.70
2023-03-06T14:45:13.556Z,2.35
2023-03-06T14:47:39.968Z,2.80
2023-03-06T14:50:40.926Z,1.40
2023-03-06T14:53:29.066Z,1.73
2023-03-06T14:56:01.611Z,1.63
2023-03-06T14:59:04.890Z,1.67
2023-03-06T15:01:38.395Z,1.33
2023-03-06T15:04:28.810Z,1.20
2023-03-06T15:06:56.622Z,1.73
2023-03-06T15:09:46.344Z,1.33
2023-03-06T15:12:19.737Z,0.98
2023-03-06T15:15:29.443Z,1.55
2023-03-06T15:17:56.146Z,1.10
2023-03-06T15:20:41.472Z,1.40
2023-03-06T15:23:24.550Z,1.73
2023-03-06T15:26:00.368Z,1.88
2023-03-06T15:28:38.616Z,1.88
2023-03-06T15:31:05.115Z,1.47
2023-03-06T15:33:31.619Z,1.33
2023-03-06T15:36:01.760Z,1.42
2023-03-06T15:38:41.751Z,2.03
2023-03-06T15:41:22.790Z,1.23
2023-03-06T15:43:49.398Z,0.90
2023-03-06T15:46:15.924Z,1.35
2023-03-06T15:49:13.909Z,1.58
2023-03-06T15:51:40.772Z,1.58
2023-03-06T15:54:12.310Z,2.15
2023-03-06T15:56:41.697Z,2.43
2023-03-06T15:59:15.347Z,2.40
2023-03-06T16:01:43.298Z,2.80
2023-03-06T16:04:09.967Z,3.08
2023-03-06T16:06:37.633Z,2.72
2023-03-06T16:09:05.759Z,2.50
2023-03-06T16:11:43.233Z,3.38
2023-03-06T16:14:21.023Z,3.88
2023-03-06T16:16:48.690Z,4.72
2023-03-06T16:19:28.137Z,5.68
2023-03-06T16:21:56.386Z,4.53
2023-03-06T16:24:23.544Z,5.05
2023-03-06T16:26:51.828Z,5.72
2023-03-06T16:29:23.468Z,6.00
2023-03-06T16:31:50.064Z,6.20
2023-03-06T16:34:19.634Z,6.67
2023-03-06T16:36:48.221Z,6.28
2023-03-06T16:39:16.997Z,6.82
2023-03-06T16:41:45.837Z,7.30
2023-03-06T16:44:12.980Z,6.45
2023-03-06T16:46:45.210Z,6.40
2023-03-06T16:49:22.823Z,6.60
2023-03-06T16:51:50.164Z,6.78
2023-03-06T16:54:17.328Z,6.55
2023-03-06T16:56:44.225Z,6.57
2023-03-06T16:59:11.966Z,7.57
2023-03-06T17:01:42.652Z,6.93
2023-03-06T17:04:09.447Z,7.70
2023-03-06T17:06:35.911Z,7.72
2023-03-06T17:09:02.368Z,7.15
2023-03-06T17:11:29.361Z,7.57
2023-03-06T17:13:55.879Z,6.97
2023-03-06T17:16:22.427Z,7.43
2023-03-06T17:18:49.596Z,6.97
2023-03-06T17:21:16.308Z,6.90
2023-03-06T17:23:43.096Z,7.47
2023-03-06T17:26:18.048Z,6.88
2023-03-06T17:28:45.501Z,5.90
2023-03-06T17:31:16.461Z,8.60
2023-03-06T17:33:43.652Z,6.55
2023-03-06T17:36:10.904Z,5.80
2023-03-06T17:38:37.631Z,6.55
2023-03-06T17:41:05.928Z,7.20
2023-03-06T17:43:33.556Z,6.70
2023-03-06T17:46:18.544Z,6.53
2023-03-06T17:48:45.390Z,6.90
2023-03-06T17:51:12.047Z,5.90
2023-03-06T17:53:39.339Z,7.22
2023-03-06T17:56:08.771Z,7.32
2023-03-06T17:58:35.408Z,6.07
2023-03-06T18:01:13.401Z,6.37
2023-03-06T18:03:44.372Z,6.25
2023-03-06T18:06:10.923Z,6.60
2023-03-06T18:08:38.055Z,7.20
2023-03-06T18:11:06.745Z,6.80
2023-03-06T18:13:34.690Z,7.40
2023-03-06T18:16:01.492Z,7.10
2023-03-06T18:18:28.438Z,7.75
2023-03-06T18:20:55.119Z,5.53
2023-03-06T18:23:21.724Z,8.23
2023-03-06T18:25:48.335Z,8.40
2023-03-06T18:28:14.724Z,8.45
2023-03-06T18:30:42.319Z,9.25
2023-03-06T18:33:09.834Z,8.27
2023-03-06T18:35:36.805Z,7.53
2023-03-06T18:38:03.557Z,7.50
2023-03-06T18:40:30.092Z,8.05
2023-03-06T18:42:56.686Z,8.38
2023-03-06T18:45:23.167Z,7.90
2023-03-06T18:47:49.586Z,7.32
2023-03-06T18:50:17.610Z,7.83
2023-03-06T18:52:44.751Z,7.90
2023-03-06T18:55:12.158Z,7.15
2023-03-06T18:57:39.161Z,8.02
2023-03-06T19:00:07.750Z,7.82
2023-03-06T19:02:34.537Z,7.37
2023-03-06T19:05:00.970Z,8.23
2023-03-06T19:07:27.425Z,7.60
2023-03-06T19:09:53.966Z,7.57
2023-03-06T19:12:20.595Z,8.43
2023-03-06T19:14:47.091Z,7.50
2023-03-06T19:17:13.571Z,8.52
2023-03-06T19:19:40.082Z,7.10
2023-03-06T19:22:06.558Z,7.40
2023-03-06T19:24:32.980Z,7.40
2023-03-06T19:26:59.404Z,8.77
2023-03-06T19:29:25.952Z,8.35
2023-03-06T19:31:52.486Z,8.73
2023-03-06T19:34:19.103Z,8.48
2023-03-06T19:36:45.526Z,8.02
2023-03-06T19:39:12.102Z,8.40
2023-03-06T19:41:38.517Z,8.70
2023-03-06T19:44:05.822Z,9.73
2023-03-06T19:46:32.449Z,8.35
2023-03-06T19:49:01.396Z,9.52
2023-03-06T19:51:28.985Z,9.33
2023-03-06T19:53:56.718Z,8.70
2023-03-06T19:56:28.988Z,9.18
2023-03-06T19:58:56.219Z,9.48
2023-03-06T20:01:24.885Z,9.32
2023-03-06T20:03:58.915Z,10.57
2023-03-06T20:06:27.905Z,7.72
2023-03-06T20:08:54.599Z,9.90
2023-03-06T20:11:26.618Z,9.73
2023-03-06T20:13:53.479Z,8.60
2023-03-06T20:16:20.320Z,9.53
2023-03-06T20:18:46.861Z,9.93
2023-03-06T20:21:14.534Z,10.73
2023-03-06T20:23:41.358Z,10.02
2023-03-06T20:26:10.697Z,10.55
2023-03-06T20:28:39.180Z,10.13
2023-03-06T20:31:16.309Z,9.63
2023-03-06T20:33:43.834Z,7.88
2023-03-06T20:36:24.434Z,8.68
2023-03-06T20:38:51.008Z,8.95
2023-03-06T20:41:20.720Z,9.97
2023-03-06T20:43:47.391Z,9.18
2023-03-06T20:46:14.378Z,9.57
2023-03-06T20:48:41.999Z,9.40
2023-03-06T20:51:21.047Z,9.18
2023-03-06T20:53:49.071Z,10.57
2023-03-06T20:56:20.241Z,10.43
2023-03-06T20:58:46.960Z,9.73
2023-03-06T21:01:27.510Z,9.20
2023-03-06T21:03:55.009Z,9.80
2023-03-06T21:06:21.498Z,9.07
2023-03-06T21:08:48.631Z,9.05
2023-03-06T21:11:16.129Z,10.20
2023-03-06T21:13:43.012Z,9.40
2023-03-06T21:16:15.269Z,9.55
2023-03-06T21:18:42.329Z,8.33
2023-03-06T21:21:11.304Z,7.97
2023-03-06T21:23:38.141Z,9.55
2023-03-06T21:26:05.512Z,8.95
2023-03-06T21:28:32.434Z,9.25
2023-03-06T21:31:02.490Z,9.60
2023-03-06T21:33:29.291Z,10.00
2023-03-06T21:35:55.798Z,9.13
2023-03-06T21:38:22.284Z,8.88
2023-03-06T21:40:48.697Z,9.50
2023-03-06T21:43:17.396Z,9.90
2023-03-06T21:45:46.053Z,9.32
2023-03-06T21:48:14.428Z,9.50
2023-03-06T21:50:41.418Z,9.45
2023-03-06T21:53:08.572Z,10.15
2023-03-06T21:55:38.816Z,8.93
2023-03-06T21:58:05.498Z,8.70
2023-03-06T22:00:36.072Z,8.07
2023-03-06T22:03:03.553Z,7.13
2023-03-06T22:05:31.905Z,6.95
2023-03-06T22:07:59.223Z,6.30
2023-03-06T22:10:25.736Z,7.22
2023-03-06T22:12:52.365Z,5.65
2023-03-06T22:15:21.738Z,5.50
2023-03-06T22:17:48.574Z,4.82
2023-03-06T22:20:15.447Z,4.50
2023-03-06T22:22:42.322Z,4.85
2023-03-06T22:25:09.221Z,4.55
2023-03-06T22:27:35.957Z,3.55
2023-03-06T22:30:02.525Z,3.10
2023-03-06T22:32:29.035Z,3.40
2023-03-06T22:34:55.490Z,2.47
2023-03-06T22:37:21.956Z,2.95
2023-03-06T22:39:48.438Z,2.40
2023-03-06T22:42:14.966Z,2.50
2023-03-06T22:44:41.437Z,1.90
2023-03-06T22:47:08.189Z,2.22
2023-03-06T22:49:34.837Z,2.47
2023-03-06T22:52:01.342Z,2.05
2023-03-06T22:54:27.761Z,1.85
2023-03-06T22:56:54.239Z,1.80
2023-03-06T22:59:20.627Z,2.13
2023-03-06T23:01:47.112Z,2.60
2023-03-06T23:04:13.627Z,2.38
2023-03-06T23:06:42.004Z,2.08
2023-03-06T23:09:20.452Z,2.17
2023-03-06T23:11:47.826Z,1.65
2023-03-06T23:14:15.525Z,1.52
2023-03-06T23:16:42.124Z,1.67
2023-03-06T23:19:08.857Z,1.67
2023-03-06T23:21:35.655Z,1.80
2023-03-06T23:24:02.842Z,1.05
2023-03-06T23:26:31.341Z,1.50
2023-03-06T23:28:58.117Z,1.85
2023-03-06T23:31:28.796Z,1.17
2023-03-06T23:34:00.341Z,1.10
2023-03-06T23:36:28.212Z,1.52
2023-03-06T23:38:55.010Z,1.27
2023-03-06T23:41:22.363Z,1.45
2023-03-06T23:43:49.601Z,1.88
2023-03-06T23:46:17.803Z,2.77
2023-03-06T23:48:44.988Z,2.45
2023-03-06T23:51:20.622Z,2.47
2023-03-06T23:53:52.680Z,2.35
2023-03-06T23:56:19.089Z,2.30
2023-03-06T23:58:45.742Z,3.03
